Time;durP1;ratioP1;P1;durP2;ratioP2;P2;SDS_P1;SDS_P2;PMS_P1;PMS_P2;Temp;Humidity;BMP_temperature;BMP_pressure;BME280_temperature;BME280_humidity;BME280_pressure;Samples;Min_cycle;Max_cycle;Signal;HPM_P1;HPM_P2
2022/07/03 00:00:00;;;;;;;2.47;1.30;;;;;;;19.56;95.09;100207.22;5030892;28;20029;-68
2022/07/03 00:02:26;;;;;;;2.00;1.50;;;;;;;19.59;95.73;100207.00;5029468;28;20029;-68
2022/07/03 00:04:51;;;;;;;3.50;1.60;;;;;;;19.57;95.66;100204.41;5030583;28;20033;-68
2022/07/03 00:07:17;;;;;;;3.47;1.70;;;;;;;19.52;95.72;100194.91;5029756;28;20095;-68
2022/07/03 00:09:42;;;;;;;2.33;1.50;;;;;;;19.52;96.49;100200.31;5027068;28;20033;-68
2022/07/03 00:12:09;;;;;;;2.47;1.30;;;;;;;19.50;96.83;100211.19;5027895;28;20029;-68
2022/07/03 00:14:34;;;;;;;2.80;1.48;;;;;;;19.44;96.63;100203.50;5028555;28;20411;-68
2022/07/03 00:16:59;;;;;;;2.55;1.52;;;;;;;19.45;96.87;100209.78;5028901;28;20029;-68
2022/07/03 00:19:25;;;;;;;2.58;1.50;;;;;;;19.47;97.43;100215.94;5028586;28;20388;-68
2022/07/03 00:21:56;;;;;;;3.40;1.88;;;;;;;19.47;97.41;100207.84;5028958;28;20099;-68
2022/07/03 00:24:28;;;;;;;4.05;2.10;;;;;;;19.53;96.94;100215.53;5024619;28;20021;-68
2022/07/03 00:26:57;;;;;;;3.85;2.00;;;;;;;19.57;96.85;100211.66;5016180;28;20033;-68
2022/07/03 00:29:26;;;;;;;3.03;1.65;;;;;;;19.60;96.63;100212.31;5031459;28;20025;-69
2022/07/03 00:31:52;;;;;;;3.55;1.80;;;;;;;19.55;95.54;100202.81;5031156;28;20025;-68
2022/07/03 00:34:18;;;;;;;3.33;2.13;;;;;;;19.63;94.53;100209.44;5031532;28;20058;-68
2022/07/03 00:36:46;;;;;;;3.00;1.80;;;;;;;19.73;93.65;100211.50;5031315;28;20026;-68
2022/07/03 00:39:11;;;;;;;3.85;1.80;;;;;;;19.70;92.78;100214.41;5030789;28;20021;-68
2022/07/03 00:41:37;;;;;;;3.00;1.80;;;;;;;19.73;92.66;100220.47;5031229;28;20044;-68
2022/07/03 00:44:03;;;;;;;3.45;1.80;;;;;;;19.74;92.02;100216.78;5031071;28;20379;-69
2022/07/03 00:46:29;;;;;;;3.00;1.88;;;;;;;19.75;92.16;100212.28;5031058;28;20067;-69
2022/07/03 00:48:56;;;;;;;3.63;1.80;;;;;;;19.77;92.66;100213.88;5031103;28;20108;-68
2022/07/03 00:51:24;;;;;;;4.10;1.92;;;;;;;19.73;92.34;100209.69;5030872;28;20033;-68
2022/07/03 00:53:52;;;;;;;3.40;1.88;;;;;;;19.77;92.60;100211.19;5031300;28;20100;-68
2022/07/03 00:56:23;;;;;;;2.47;1.80;;;;;;;19.73;91.86;100200.69;5012234;28;20041;-68
2022/07/03 00:58:53;;;;;;;3.95;1.90;;;;;;;19.75;92.06;100202.34;5031104;28;20492;-68
2022/07/03 01:01:19;;;;;;;3.13;1.60;;;;;;;19.70;92.60;100199.09;5030913;28;20029;-68
2022/07/03 01:03:45;;;;;;;4.60;1.70;;;;;;;19.72;92.84;100202.53;5030922;28;20026;-69
2022/07/03 01:06:14;;;;;;;3.80;1.55;;;;;;;19.67;92.73;100196.56;5030550;28;20091;-68
2022/07/03 01:08:49;;;;;;;3.88;1.80;;;;;;;19.68;93.66;100211.81;5012673;28;20025;-68
2022/07/03 01:11:24;;;;;;;2.40;1.52;;;;;;;19.60;94.49;100200.66;5028558;28;20037;-69
2022/07/03 01:13:49;;;;;;;3.10;1.38;;;;;;;19.46;95.40;100211.50;5029925;28;20029;-69
2022/07/03 01:16:37;;;;;;;4.15;2.25;;;;;;;19.37;95.82;100212.09;5030431;28;20044;-68
2022/07/03 01:19:32;;;;;;;2.25;1.65;;;;;;;19.25;96.62;100218.25;5031073;28;20036;-69
2022/07/03 01:22:16;;;;;;;2.80;1.67;;;;;;;19.16;97.23;100213.47;5026024;28;20583;-68
2022/07/03 01:25:04;;;;;;;2.92;1.90;;;;;;;19.09;97.54;100215.66;5010744;28;20443;-68
2022/07/03 01:27:52;;;;;;;5.03;1.88;;;;;;;19.04;97.79;100211.56;5021916;28;20075;-69
2022/07/03 01:30:18;;;;;;;3.08;1.92;;;;;;;18.90;98.26;100184.59;5030285;28;20022;-69
2022/07/03 01:32:46;;;;;;;3.22;1.83;;;;;;;19.05;98.85;100211.44;5030512;28;20075;-69
2022/07/03 01:35:20;;;;;;;4.35;2.70;;;;;;;19.08;98.39;100204.97;5029850;28;20025;-69
2022/07/03 01:37:47;;;;;;;3.58;1.80;;;;;;;19.13;97.77;100205.56;5011052;28;20105;-69
2022/07/03 01:40:16;;;;;;;3.67;1.77;;;;;;;19.13;96.96;100203.72;5010703;28;20022;-69
2022/07/03 01:42:44;;;;;;;4.82;2.20;;;;;;;19.17;96.97;100199.00;4995069;28;20049;-69
2022/07/03 01:45:10;;;;;;;2.40;1.60;;;;;;;19.19;96.01;100207.88;5010899;28;20029;-69
2022/07/03 01:47:40;;;;;;;2.85;1.90;;;;;;;19.20;96.24;100204.19;5010417;28;20432;-68
2022/07/03 01:50:07;;;;;;;3.10;1.95;;;;;;;19.22;96.13;100203.16;5010919;28;20488;-68
2022/07/03 01:52:34;;;;;;;2.38;1.67;;;;;;;19.22;97.31;100204.97;5009393;28;20783;-69
2022/07/03 01:55:01;;;;;;;3.40;1.95;;;;;;;19.19;96.72;100203.31;5010502;28;20124;-69
2022/07/03 01:57:40;;;;;;;3.10;1.80;;;;;;;19.15;96.92;100196.41;5007276;28;20033;-69
2022/07/03 02:00:07;;;;;;;3.67;2.10;;;;;;;19.14;97.57;100199.22;5026184;28;20025;-68
2022/07/03 02:02:34;;;;;;;2.53;1.92;;;;;;;19.11;97.83;100207.50;5028521;28;20037;-68
2022/07/03 02:05:07;;;;;;;2.90;1.90;;;;;;;19.14;98.26;100204.59;5028798;28;20026;-69
2022/07/03 02:07:41;;;;;;;3.65;1.70;;;;;;;19.08;98.22;100207.69;5030541;28;20029;-69
2022/07/03 02:10:08;;;;;;;2.97;2.00;;;;;;;19.02;99.66;100200.00;5032417;28;20025;-69
2022/07/03 02:12:47;;;;;;;4.25;1.92;;;;;;;18.97;99.65;100200.31;5032978;28;20392;-69
2022/07/03 02:15:17;;;;;;;2.63;1.90;;;;;;;19.00;99.71;100213.56;5033972;28;20540;-69
2022/07/03 02:17:46;;;;;;;2.58;1.38;;;;;;;19.00;99.79;100212.69;5033625;28;20025;-69
2022/07/03 02:20:16;;;;;;;3.28;1.73;;;;;;;18.95;99.97;100210.31;5034132;28;20025;-69
2022/07/03 02:22:51;;;;;;;2.72;1.88;;;;;;;18.96;100.00;100197.69;5020998;28;20100;-69
2022/07/03 02:25:22;;;;;;;4.18;2.25;;;;;;;19.03;99.89;100196.31;5028405;28;20124;-69
2022/07/03 02:28:16;;;;;;;3.08;2.10;;;;;;;19.11;99.85;100202.97;5033514;28;20476;-69
2022/07/03 02:30:43;;;;;;;7.53;2.40;;;;;;;19.13;99.62;100197.47;5016294;28;20408;-69
2022/07/03 02:33:13;;;;;;;4.72;1.80;;;;;;;19.16;99.03;100203.53;5033057;28;20033;-69
2022/07/03 02:35:40;;;;;;;3.13;1.75;;;;;;;19.11;98.74;100188.63;5031219;28;20029;-69
2022/07/03 02:38:08;;;;;;;6.97;2.17;;;;;;;19.14;99.34;100204.59;5031989;28;20488;-69
2022/07/03 02:40:45;;;;;;;4.28;2.20;;;;;;;19.07;99.03;100197.88;5033038;28;20064;-69
2022/07/03 02:43:17;;;;;;;4.47;2.13;;;;;;;19.10;98.55;100203.94;5033310;28;20543;-69
2022/07/03 02:45:55;;;;;;;4.63;2.13;;;;;;;19.07;98.65;100198.75;5033369;28;20029;-69
2022/07/03 02:48:34;;;;;;;3.85;2.20;;;;;;;19.06;99.06;100206.94;5033683;28;20040;-69
2022/07/03 02:51:09;;;;;;;5.65;2.33;;;;;;;19.06;99.13;100204.25;5033101;28;20476;-69
2022/07/03 02:53:44;;;;;;;3.33;2.03;;;;;;;19.03;98.89;100213.38;5033373;28;20395;-69
2022/07/03 02:56:18;;;;;;;3.30;2.15;;;;;;;19.02;98.78;100214.34;5032863;28;20057;-69
2022/07/03 02:58:59;;;;;;;4.20;2.10;;;;;;;18.99;99.26;100205.59;5032904;28;20052;-69
2022/07/03 03:01:53;;;;;;;6.38;2.40;;;;;;;18.94;99.08;100221.19;5033367;28;20061;-69
2022/07/03 03:04:29;;;;;;;4.60;2.65;;;;;;;18.94;99.07;100213.09;5032885;28;20037;-69
2022/07/03 03:07:00;;;;;;;5.25;2.38;;;;;;;18.93;99.07;100216.78;5033281;28;20060;-68
2022/07/03 03:09:32;;;;;;;2.65;1.83;;;;;;;18.90;99.25;100222.34;5033017;28;20048;-69
2022/07/03 03:12:01;;;;;;;3.40;2.10;;;;;;;18.85;99.60;100224.44;5032530;28;20136;-69
2022/07/03 03:14:43;;;;;;;3.55;2.20;;;;;;;18.77;99.34;100226.75;5032542;28;20025;-69
2022/07/03 03:17:23;;;;;;;3.40;1.80;;;;;;;18.71;100.00;100224.47;5021764;28;20033;-69
2022/07/03 03:19:55;;;;;;;4.07;2.03;;;;;;;18.68;100.00;100227.34;5017535;28;20025;-69
2022/07/03 03:22:51;;;;;;;4.75;1.95;;;;;;;18.66;100.00;100234.66;5015437;28;20021;-69
2022/07/03 03:25:17;;;;;;;5.43;2.47;;;;;;;18.62;100.00;100233.09;5032963;28;20036;-69
2022/07/03 03:27:42;;;;;;;4.00;2.10;;;;;;;18.63;100.00;100224.09;5032089;28;20029;-69
2022/07/03 03:30:08;;;;;;;4.18;2.25;;;;;;;18.64;100.00;100236.56;5032178;28;20095;-69
2022/07/03 03:32:35;;;;;;;4.63;2.10;;;;;;;18.59;100.00;100238.69;5032713;28;20029;-69
2022/07/03 03:35:01;;;;;;;2.67;1.90;;;;;;;18.51;100.00;100224.81;5030246;28;20112;-70
2022/07/03 03:37:27;;;;;;;3.45;2.03;;;;;;;18.55;100.00;100247.94;5014561;28;20108;-69
2022/07/03 03:39:52;;;;;;;7.18;2.63;;;;;;;18.55;100.00;100247.94;5032411;28;20052;-69
2022/07/03 03:42:18;;;;;;;3.58;1.92;;;;;;;18.54;100.00;100246.19;5031008;28;20078;-69
2022/07/03 03:44:43;;;;;;;4.60;2.17;;;;;;;18.57;100.00;100256.78;5014637;28;20021;-69
2022/07/03 03:47:09;;;;;;;3.63;2.10;;;;;;;18.56;100.00;100250.53;5014398;28;20029;-69
2022/07/03 03:49:35;;;;;;;5.00;2.33;;;;;;;18.48;100.00;100242.06;5032604;28;20029;-69
2022/07/03 03:52:01;;;;;;;7.47;2.28;;;;;;;18.48;100.00;100257.34;5031901;28;20069;-69
2022/07/03 03:54:26;;;;;;;3.40;2.25;;;;;;;18.51;100.00;100254.47;5031404;28;20586;-69
2022/07/03 03:56:52;;;;;;;4.10;2.25;;;;;;;18.51;100.00;100255.34;5032301;28;20025;-69
2022/07/03 03:59:17;;;;;;;2.28;1.90;;;;;;;18.55;100.00;100261.41;5032050;28;20017;-69
2022/07/03 04:01:42;;;;;;;3.70;2.30;;;;;;;18.49;100.00;100248.28;5032333;28;20029;-69
2022/07/03 04:04:08;;;;;;;3.22;2.22;;;;;;;18.58;100.00;100269.31;5031915;28;20548;-69
2022/07/03 04:06:33;;;;;;;4.20;2.53;;;;;;;18.57;100.00;100263.03;5030742;28;20025;-69
2022/07/03 04:08:59;;;;;;;4.43;2.17;;;;;;;18.62;100.00;100254.66;5030002;28;20018;-69
2022/07/03 04:11:24;;;;;;;5.00;2.50;;;;;;;18.74;100.00;100265.56;5029765;28;20037;-69
2022/07/03 04:13:49;;;;;;;3.45;2.38;;;;;;;18.76;100.00;100270.88;5029492;28;20171;-69
2022/07/03 04:16:15;;;;;;;3.80;2.10;;;;;;;18.75;99.41;100261.03;5031996;28;20040;-69
2022/07/03 04:18:40;;;;;;;3.38;2.13;;;;;;;18.83;98.71;100274.91;5013562;28;20380;-69
2022/07/03 04:21:06;;;;;;;6.13;1.95;;;;;;;18.85;98.34;100267.56;5029974;28;20108;-70
2022/07/03 04:23:31;;;;;;;3.40;2.17;;;;;;;18.88;98.40;100272.81;5007557;28;20025;-70
2022/07/03 04:26:04;;;;;;;3.15;2.25;;;;;;;18.90;98.10;100276.25;5010021;28;20026;-70
2022/07/03 04:28:30;;;;;;;5.93;2.42;;;;;;;18.94;98.40;100267.03;5029280;28;20031;-70
2022/07/03 04:30:56;;;;;;;3.78;2.40;;;;;;;18.97;98.71;100278.47;5029333;28;20388;-70
2022/07/03 04:33:21;;;;;;;3.63;2.25;;;;;;;19.01;98.54;100281.84;5029074;28;20029;-69
2022/07/03 04:35:47;;;;;;;3.58;2.03;;;;;;;19.02;97.77;100275.50;5030644;28;20474;-70
2022/07/03 04:38:12;;;;;;;3.10;1.90;;;;;;;19.05;97.57;100275.28;5031557;28;20044;-70
2022/07/03 04:40:37;;;;;;;3.72;2.30;;;;;;;19.06;96.91;100269.78;5031258;28;20021;-70
2022/07/03 04:43:03;;;;;;;6.90;2.50;;;;;;;19.12;97.20;100277.53;5031465;28;20037;-70
2022/07/03 04:45:28;;;;;;;3.15;2.00;;;;;;;19.19;97.52;100288.78;5030797;28;20025;-70
2022/07/03 04:47:54;;;;;;;2.78;1.80;;;;;;;19.20;96.51;100275.19;5031081;28;20029;-70
2022/07/03 04:50:20;;;;;;;4.18;1.80;;;;;;;19.36;95.62;100292.16;5030278;28;20076;-70
2022/07/03 04:52:45;;;;;;;5.65;1.90;;;;;;;19.41;95.18;100289.16;5031567;28;20500;-70
2022/07/03 04:55:12;;;;;;;3.35;2.20;;;;;;;19.45;94.78;100285.31;5030603;28;20063;-70
2022/07/03 04:57:37;;;;;;;4.53;2.17;;;;;;;19.42;94.69;100286.38;5031320;28;20373;-70
2022/07/03 05:00:04;;;;;;;6.05;2.22;;;;;;;19.53;94.36;100296.47;5031071;28;20036;-70
2022/07/03 05:02:29;;;;;;;5.20;1.95;;;;;;;19.52;93.61;100286.66;5013236;28;20021;-70
2022/07/03 05:04:55;;;;;;;2.92;2.08;;;;;;;19.56;93.23;100283.66;5030982;28;20039;-70
2022/07/03 05:07:20;;;;;;;4.07;1.70;;;;;;;19.71;93.31;100292.56;5030520;28;20112;-70
2022/07/03 05:09:45;;;;;;;4.05;1.90;;;;;;;19.76;93.18;100294.97;5030502;28;20025;-70
2022/07/03 05:12:11;;;;;;;4.13;2.10;;;;;;;19.79;92.86;100292.94;5030521;28;20029;-70
2022/07/03 05:14:36;;;;;;;2.47;1.80;;;;;;;19.87;91.68;100293.28;5023107;28;20114;-70
2022/07/03 05:17:02;;;;;;;4.50;1.70;;;;;;;19.98;91.37;100301.56;4993651;28;20393;-70
2022/07/03 05:19:27;;;;;;;3.88;1.80;;;;;;;20.06;91.14;100299.22;5012918;28;20022;-70
2022/07/03 05:21:52;;;;;;;3.17;1.90;;;;;;;20.16;90.88;100300.38;5030491;28;20024;-69
2022/07/03 05:24:18;;;;;;;3.95;1.95;;;;;;;20.22;90.00;100293.66;5030072;28;20435;-70
2022/07/03 05:26:43;;;;;;;2.78;1.70;;;;;;;20.24;89.98;100286.34;5025418;28;20025;-70
2022/07/03 05:29:09;;;;;;;2.83;1.80;;;;;;;20.37;89.15;100304.31;5024474;28;20036;-69
2022/07/03 05:31:34;;;;;;;3.85;1.65;;;;;;;20.51;88.80;100301.53;5030846;28;20035;-69
2022/07/03 05:33:59;;;;;;;3.67;1.60;;;;;;;20.58;88.46;100292.03;5030660;28;20033;-70
2022/07/03 05:36:25;;;;;;;2.10;1.60;;;;;;;20.69;88.60;100288.59;5030617;28;20064;-70
2022/07/03 05:41:34;;;;;;;2.95;1.75;;;;;;;20.95;86.95;100291.19;5031140;28;20104;-69
2022/07/03 05:44:00;;;;;;;4.03;1.50;;;;;;;21.07;87.21;100297.59;5034291;28;20029;-69
2022/07/03 05:46:25;;;;;;;9.30;2.13;;;;;;;21.20;86.56;100295.78;5034730;28;20112;-69
2022/07/03 05:48:50;;;;;;;4.30;1.42;;;;;;;21.38;86.02;100298.97;5034813;28;20029;-69
2022/07/03 05:51:16;;;;;;;1.67;1.30;;;;;;;21.52;83.26;100288.88;5034543;28;20032;-69
2022/07/03 05:53:41;;;;;;;2.88;1.48;;;;;;;21.63;82.55;100293.50;5034469;28;20026;-69
2022/07/03 05:56:07;;;;;;;2.80;1.50;;;;;;;21.72;81.00;100292.81;5034044;28;20129;-70
2022/07/03 05:58:32;;;;;;;5.70;2.00;;;;;;;21.90;81.46;100294.19;5034549;28;20038;-69
2022/07/03 06:00:58;;;;;;;2.30;1.30;;;;;;;22.30;79.96;100306.47;5033679;28;20027;-69
2022/07/03 06:03:23;;;;;;;2.83;1.60;;;;;;;22.46;78.95;100300.75;5034458;28;20044;-69
2022/07/03 06:05:48;;;;;;;2.80;1.63;;;;;;;22.50;78.61;100299.53;5034165;28;20044;-69
2022/07/03 06:08:14;;;;;;;4.10;1.33;;;;;;;22.55;77.02;100303.66;5034766;28;20017;-69
2022/07/03 06:10:39;;;;;;;4.45;2.45;;;;;;;22.67;77.53;100305.41;5034166;28;20079;-69
2022/07/03 06:13:05;;;;;;;3.80;1.85;;;;;;;22.73;76.57;100299.53;5029887;28;20060;-68
2022/07/03 06:15:30;;;;;;;2.33;1.20;;;;;;;22.75;75.10;100310.25;5032558;28;20059;-68
2022/07/03 06:17:56;;;;;;;1.65;1.15;;;;;;;22.81;75.22;100309.75;5032964;28;20025;-68
2022/07/03 06:20:21;;;;;;;3.40;1.40;;;;;;;22.93;75.36;100312.38;5033913;28;20025;-68
2022/07/03 06:22:47;;;;;;;2.13;1.40;;;;;;;23.07;74.00;100316.72;5026983;28;20425;-68
2022/07/03 06:25:12;;;;;;;5.32;1.63;;;;;;;23.14;74.11;100321.56;5026008;28;20084;-68
2022/07/03 06:27:38;;;;;;;4.45;1.63;;;;;;;23.22;73.93;100318.22;5033914;28;20071;-68
2022/07/03 06:30:04;;;;;;;2.20;1.35;;;;;;;23.44;74.22;100320.97;5012655;28;20036;-69
2022/07/03 06:32:29;;;;;;;3.53;1.30;;;;;;;23.65;72.83;100315.66;5013668;28;20436;-67
2022/07/03 06:34:55;;;;;;;1.98;1.30;;;;;;;23.71;nan;100304.25;5013652;28;20057;-68
2022/07/03 06:37:21;;;;;;;1.65;1.20;;;;;;;23.72;69.78;100325.03;5013666;28;20040;-67
2022/07/03 06:39:46;;;;;;;3.50;1.50;;;;;;;23.73;69.45;100324.03;5014045;28;20026;-68
2022/07/03 06:42:12;;;;;;;1.90;1.10;;;;;;;23.91;69.39;100334.25;5013669;28;20354;-67
2022/07/03 06:44:37;;;;;;;3.20;1.35;;;;;;;24.05;69.21;100331.28;5014023;28;20029;-68
2022/07/03 06:47:03;;;;;;;2.88;1.00;;;;;;;24.10;67.73;100330.94;5014088;28;20032;-67
2022/07/03 06:49:32;;;;;;;2.97;0.98;;;;;;;24.20;65.91;100330.00;5028558;28;20022;-67
2022/07/03 06:51:58;;;;;;;1.48;1.23;;;;;;;24.30;66.14;100322.81;5013334;28;20026;-67
2022/07/03 06:54:23;;;;;;;2.05;1.13;;;;;;;24.46;65.87;100325.13;5011996;28;20083;-67
2022/07/03 06:56:49;;;;;;;2.20;1.17;;;;;;;24.62;65.60;100330.97;5013687;28;20109;-67
2022/07/03 06:59:14;;;;;;;2.65;0.95;;;;;;;24.74;65.81;100308.19;5023535;28;20454;-67
2022/07/03 07:01:40;;;;;;;2.20;1.17;;;;;;;24.96;64.50;100323.53;5033290;28;20044;-68
2022/07/03 07:04:05;;;;;;;2.42;1.10;;;;;;;25.03;64.16;100322.84;5033228;28;20105;-67
2022/07/03 07:06:30;;;;;;;3.80;1.10;;;;;;;25.20;63.59;100314.06;5033272;28;20026;-67
2022/07/03 07:08:56;;;;;;;1.67;0.90;;;;;;;25.28;61.95;100319.69;5032620;28;20022;-70
2022/07/03 07:11:21;;;;;;;2.03;1.10;;;;;;;25.36;61.78;100311.75;5032695;28;20490;-68
2022/07/03 07:13:47;;;;;;;1.80;1.00;;;;;;;25.59;61.82;100318.72;5031700;28;20037;-68
2022/07/03 07:16:12;;;;;;;3.83;1.15;;;;;;;25.85;60.38;100328.13;5032568;28;20441;-70
2022/07/03 07:18:40;;;;;;;3.22;0.93;;;;;;;26.01;59.04;100324.91;5033000;28;20128;-69
2022/07/03 07:21:05;;;;;;;1.45;1.00;;;;;;;26.20;58.44;100322.22;5022977;28;20030;-69
2022/07/03 07:23:31;;;;;;;1.73;1.25;;;;;;;26.44;59.33;100328.13;5012873;28;20028;-69
2022/07/03 07:25:56;;;;;;;1.63;0.80;;;;;;;26.42;59.00;100327.41;5011581;28;20029;-69
2022/07/03 07:28:22;;;;;;;2.72;0.80;;;;;;;26.44;56.62;100327.28;5028498;28;20022;-69
2022/07/03 07:30:47;;;;;;;4.10;0.90;;;;;;;26.50;59.04;100321.22;5031682;28;20758;-69
2022/07/03 07:33:13;;;;;;;1.15;0.80;;;;;;;26.69;56.51;100318.53;5031873;28;20026;-69
2022/07/03 07:35:38;;;;;;;2.40;1.00;;;;;;;26.93;54.81;100317.09;5031987;28;20041;-69
2022/07/03 07:38:04;;;;;;;1.45;0.88;;;;;;;27.15;54.35;100319.47;5032536;28;20460;-69
2022/07/03 07:40:29;;;;;;;1.40;0.90;;;;;;;27.62;53.84;100314.00;5032662;28;20022;-69
2022/07/03 07:42:55;;;;;;;1.33;0.90;;;;;;;27.87;50.61;100316.03;5032139;28;20036;-69
2022/07/03 07:45:20;;;;;;;1.30;0.90;;;;;;;28.04;51.15;100307.91;5014584;28;20402;-71
2022/07/03 07:47:45;;;;;;;2.10;0.90;;;;;;;28.39;51.74;100318.91;5013808;28;20036;-69
2022/07/03 07:50:12;;;;;;;1.27;0.73;;;;;;;28.52;49.16;100313.06;5032088;28;20075;-70
2022/07/03 07:52:37;;;;;;;1.13;0.80;;;;;;;28.91;49.50;100316.31;5031942;28;20026;-70
2022/07/03 07:55:03;;;;;;;1.38;0.90;;;;;;;29.15;48.09;100316.53;5032208;28;20159;-69
2022/07/03 07:57:40;;;;;;;3.10;0.80;;;;;;;29.34;46.80;100319.06;5031345;28;20022;-69
2022/07/03 08:00:07;;;;;;;2.25;0.90;;;;;;;29.43;45.97;100320.81;5012815;28;20029;-72
2022/07/03 08:08:00;;;;;;;1.52;0.80;;;;;;;29.67;47.42;100306.41;5027837;28;20316;-69
2022/07/03 08:10:26;;;;;;;3.10;1.08;;;;;;;29.91;46.91;100312.00;5029033;28;20037;-70
2022/07/03 08:12:51;;;;;;;2.60;0.80;;;;;;;30.11;45.71;100313.44;5028480;28;20451;-70
2022/07/03 08:15:17;;;;;;;2.78;0.82;;;;;;;30.30;44.77;100316.78;5030472;28;20025;-70
2022/07/03 08:17:42;;;;;;;1.48;0.88;;;;;;;30.67;46.42;100313.56;5030089;28;20552;-70
2022/07/03 08:20:08;;;;;;;2.17;1.02;;;;;;;30.96;44.43;100313.94;5028534;28;20095;-70
2022/07/03 08:22:34;;;;;;;1.77;0.90;;;;;;;31.01;43.89;100318.91;5025860;28;20052;-70
2022/07/03 08:24:59;;;;;;;2.13;1.10;;;;;;;31.07;43.82;100312.75;5023900;28;20033;-70
2022/07/03 08:27:24;;;;;;;1.50;0.90;;;;;;;31.09;44.33;100314.25;5029253;28;20072;-71
2022/07/03 08:29:50;;;;;;;2.72;0.77;;;;;;;31.24;44.93;100311.66;5029562;28;20472;-70
2022/07/03 08:32:15;;;;;;;3.00;0.90;;;;;;;31.37;43.67;100318.38;5029858;28;20108;-69
2022/07/03 08:34:41;;;;;;;1.10;0.70;;;;;;;31.42;42.47;100317.84;5030331;28;20033;-70
2022/07/03 08:37:06;;;;;;;1.98;0.82;;;;;;;31.59;42.25;100323.16;5011879;28;20032;-70
2022/07/03 08:39:32;;;;;;;2.80;0.80;;;;;;;31.77;41.50;100299.00;5030176;28;20464;-70
2022/07/03 08:41:58;;;;;;;1.77;1.00;;;;;;;31.91;40.90;100309.28;5029535;28;20059;-70
2022/07/03 08:44:24;;;;;;;4.22;2.22;;;;;;;32.30;41.62;100314.75;5029756;28;20025;-70
2022/07/03 08:46:51;;;;;;;2.40;1.02;;;;;;;32.34;39.60;100318.00;5029621;28;20091;-70
2022/07/03 08:49:17;;;;;;;1.10;0.70;;;;;;;32.12;39.19;100314.19;5029713;28;20049;-70
2022/07/03 08:51:45;;;;;;;1.50;0.88;;;;;;;32.25;39.12;100308.94;5029733;28;20180;-70
2022/07/03 08:54:11;;;;;;;1.00;0.60;;;;;;;32.52;39.89;100310.34;5011646;28;20047;-70
2022/07/03 08:56:37;;;;;;;0.82;0.70;;;;;;;32.88;39.27;100306.75;5029727;28;20108;-70
2022/07/03 08:59:06;;;;;;;1.20;0.70;;;;;;;32.83;39.39;100306.50;5028962;28;20132;-70
2022/07/03 09:01:32;;;;;;;2.58;0.60;;;;;;;32.92;39.04;100305.41;5030448;28;20037;-70
2022/07/03 09:03:58;;;;;;;3.30;0.60;;;;;;;33.18;36.79;100311.34;5013087;28;20124;-70
2022/07/03 09:06:24;;;;;;;3.70;1.48;;;;;;;32.99;36.95;100314.63;5030642;28;20041;-70
2022/07/03 09:08:51;;;;;;;1.23;0.60;;;;;;;33.16;36.34;100299.63;5029608;28;20030;-70
2022/07/03 09:11:17;;;;;;;2.35;0.80;;;;;;;33.41;36.19;100307.69;5011638;28;20018;-70
2022/07/03 09:13:42;;;;;;;2.55;0.60;;;;;;;33.41;35.45;100318.72;5028861;28;20080;-70
2022/07/03 09:16:16;;;;;;;3.60;0.70;;;;;;;33.56;34.70;100316.84;5028075;28;20025;-70
2022/07/03 09:18:43;;;;;;;0.85;0.47;;;;;;;33.60;33.56;100315.41;5028592;28;20507;-70
2022/07/03 09:21:09;;;;;;;1.80;0.50;;;;;;;33.34;35.29;100308.41;5016874;28;20025;-70
2022/07/03 09:23:39;;;;;;;4.22;0.88;;;;;;;33.75;35.92;100308.84;5029891;28;20492;-70
2022/07/03 09:26:06;;;;;;;1.55;0.45;;;;;;;33.92;34.20;100306.78;5030908;28;20040;-70
2022/07/03 09:28:45;;;;;;;2.85;0.60;;;;;;;33.81;33.79;100304.44;5030436;28;20029;-70
2022/07/03 09:31:16;;;;;;;2.75;0.50;;;;;;;33.81;33.67;100305.31;5012632;28;20037;-70
2022/07/03 09:34:07;;;;;;;1.60;0.73;;;;;;;34.03;35.26;100301.63;5030058;28;20492;-70
2022/07/03 09:36:46;;;;;;;0.73;0.60;;;;;;;34.23;34.27;100299.09;5027026;28;20420;-71
2022/07/03 09:39:34;;;;;;;2.03;0.80;;;;;;;34.38;33.57;100295.22;5010928;28;20507;-70
2022/07/03 09:42:04;;;;;;;3.85;0.40;;;;;;;34.45;32.58;100296.19;5029064;28;20026;-70
2022/07/03 09:44:46;;;;;;;2.63;0.57;;;;;;;34.44;32.72;100302.78;5029180;28;20021;-70
2022/07/03 09:47:20;;;;;;;2.53;0.68;;;;;;;34.62;33.43;100296.78;5029391;28;20353;-72
2022/07/03 09:49:55;;;;;;;1.67;0.60;;;;;;;34.69;32.21;100300.47;5028964;28;20586;-72
2022/07/03 09:52:35;;;;;;;1.20;0.50;;;;;;;34.41;33.56;100294.03;5029361;28;20136;-72
2022/07/03 09:55:14;;;;;;;1.05;0.57;;;;;;;34.79;32.38;100295.47;5028509;28;20068;-70
2022/07/03 09:57:51;;;;;;;0.77;0.40;;;;;;;35.06;32.53;100293.84;5028190;28;20053;-71
2022/07/03 10:00:24;;;;;;;2.05;0.50;;;;;;;34.77;30.25;100292.06;5029660;28;20064;-72
2022/07/03 10:02:53;;;;;;;2.13;0.45;;;;;;;34.94;31.52;100290.75;5030214;28;20503;-72
2022/07/03 10:05:19;;;;;;;0.77;0.45;;;;;;;35.08;30.99;100288.94;5029914;28;20025;-70
2022/07/03 10:07:58;;;;;;;0.90;0.40;;;;;;;35.19;32.13;100283.72;5030299;28;20033;-70
2022/07/03 10:10:26;;;;;;;0.30;0.30;;;;;;;35.04;30.23;100287.66;5027627;28;20025;-72
2022/07/03 10:12:54;;;;;;;1.80;0.45;;;;;;;35.22;31.54;100286.09;5028710;28;20025;-69
2022/07/03 10:15:20;;;;;;;0.88;0.30;;;;;;;35.41;30.78;100290.94;5027026;28;20040;-69
2022/07/03 10:17:51;;;;;;;2.08;0.30;;;;;;;34.97;30.43;100281.19;5030156;28;20484;-71
2022/07/03 10:20:25;;;;;;;1.23;0.30;;;;;;;34.69;31.00;100283.03;5029620;28;20020;-69
2022/07/03 10:22:51;;;;;;;1.52;0.40;;;;;;;35.13;30.96;100278.13;5029338;28;20025;-69
2022/07/03 10:25:17;;;;;;;2.00;0.43;;;;;;;35.23;32.15;100275.88;5028259;28;20023;-69
2022/07/03 10:27:44;;;;;;;1.02;0.63;;;;;;;35.24;30.91;100272.88;5018193;28;20044;-69
2022/07/03 10:30:10;;;;;;;1.85;0.60;;;;;;;35.43;31.54;100272.22;5030702;28;20444;-69
2022/07/03 10:32:37;;;;;;;1.27;0.50;;;;;;;35.87;31.28;100273.78;5032016;28;20036;-69
2022/07/03 10:35:03;;;;;;;0.70;0.40;;;;;;;36.03;30.69;100273.41;5032353;28;20384;-69
2022/07/03 10:37:41;;;;;;;3.03;0.60;;;;;;;36.15;29.96;100277.25;5032894;28;20349;-70
2022/07/03 10:46:12;;;;;;;2.15;0.70;;;;;;;36.24;30.24;100259.41;5032580;28;20560;-69
2022/07/03 10:49:01;;;;;;;0.88;0.73;;;;;;;36.08;28.22;100268.09;5031851;28;20376;-69
2022/07/03 10:51:29;;;;;;;0.90;0.45;;;;;;;35.55;31.03;100267.81;5031776;28;20028;-70
2022/07/03 10:54:14;;;;;;;0.65;0.40;;;;;;;35.79;30.08;100260.91;5032773;28;20036;-71
2022/07/03 10:57:13;;;;;;;1.23;0.32;;;;;;;35.98;29.31;100259.31;5033454;28;20052;-69
2022/07/03 10:59:42;;;;;;;1.70;0.50;;;;;;;36.14;31.07;100256.19;5025651;28;20396;-69
2022/07/03 11:02:32;;;;;;;0.75;0.40;;;;;;;36.37;31.61;100249.25;5033287;28;20075;-69
2022/07/03 11:04:58;;;;;;;0.90;0.38;;;;;;;35.95;29.91;100248.66;5032977;28;20045;-69
2022/07/03 11:07:33;;;;;;;4.78;2.30;;;;;;;35.85;31.68;100242.63;5032905;28;20075;-69
2022/07/03 11:10:14;;;;;;;1.45;0.30;;;;;;;35.94;30.94;100244.16;5014681;28;20032;-69
2022/07/03 11:13:16;;;;;;;1.15;0.65;;;;;;;35.80;29.97;100246.00;5011937;28;20029;-69
2022/07/03 11:15:50;;;;;;;1.00;0.45;;;;;;;36.41;31.04;100236.66;5032486;28;20095;-69
2022/07/03 11:18:35;;;;;;;1.60;0.50;;;;;;;36.47;31.93;100246.91;5032913;28;20080;-69
2022/07/03 11:21:15;;;;;;;2.42;0.70;;;;;;;36.62;30.22;100235.63;5016659;28;20032;-69
2022/07/03 11:24:07;;;;;;;0.60;0.28;;;;;;;36.24;30.92;100243.63;5013050;28;20079;-68
2022/07/03 11:26:32;;;;;;;0.38;0.30;;;;;;;35.99;28.74;100233.31;5005946;28;20535;-69
2022/07/03 11:28:58;;;;;;;1.58;0.45;;;;;;;36.12;30.15;100234.22;5021105;28;20021;-69
2022/07/03 11:31:24;;;;;;;2.00;0.50;;;;;;;36.39;30.13;100232.41;5032768;28;20033;-69
2022/07/03 11:33:56;;;;;;;0.43;0.30;;;;;;;35.97;30.18;100233.53;5031550;28;20036;-68
2022/07/03 11:36:21;;;;;;;1.60;0.43;;;;;;;36.10;28.67;100224.41;5032564;28;20030;-68
2022/07/03 11:39:04;;;;;;;3.40;2.72;;;;;;;36.22;28.33;100220.81;5032383;28;20056;-71
2022/07/03 11:41:42;;;;;;;1.15;0.38;;;;;;;36.60;30.90;100215.56;5031851;28;20034;-68
2022/07/03 11:44:09;;;;;;;0.80;0.32;;;;;;;36.63;30.47;100221.56;5012528;28;20025;-68
2022/07/03 11:46:38;;;;;;;2.05;0.60;;;;;;;36.85;28.27;100219.47;5012338;28;20079;-68